Time;durP1;ratioP1;P1;durP2;ratioP2;P2;SDS_P1;SDS_P2;PMS_P1;PMS_P2;Temp;Humidity;BMP_temperature;BMP_pressure;BME280_temperature;BME280_humidity;BME280_pressure;Samples;Min_cycle;Max_cycle;Signal;HPM_P1;HPM_P2
2021/03/11 00:00:10;;;;;;;11.90;9.00;;;;;;;3.76;66.02;95125.19;4991370;28;20427;-79
2021/03/11 00:02:35;;;;;;;11.25;8.85;;;;;;;3.78;65.59;95123.88;4989663;28;20038;-79
2021/03/11 00:05:02;;;;;;;10.57;9.48;;;;;;;3.79;65.68;95109.69;4991303;28;20030;-79
2021/03/11 00:07:28;;;;;;;12.43;9.40;;;;;;;3.77;65.63;95103.88;4990916;28;20022;-79
2021/03/11 00:09:53;;;;;;;11.48;8.15;;;;;;;3.85;65.39;95106.00;4992882;28;20021;-79
2021/03/11 00:12:18;;;;;;;10.13;8.45;;;;;;;3.96;64.89;95116.53;4990764;28;20047;-80
2021/03/11 00:14:44;;;;;;;8.80;7.78;;;;;;;4.02;64.60;95116.25;4990854;28;20035;-80
2021/03/11 00:17:09;;;;;;;10.85;8.77;;;;;;;3.92;64.63;95100.47;4989240;28;20121;-78
2021/03/11 00:19:35;;;;;;;9.45;7.78;;;;;;;3.89;64.38;95101.00;4990762;28;20059;-78
2021/03/11 00:22:01;;;;;;;11.15;8.00;;;;;;;3.99;64.37;95106.25;4992934;28;20096;-79
2021/03/11 00:24:27;;;;;;;9.55;8.48;;;;;;;3.99;63.95;95118.63;4991157;28;20035;-81
2021/03/11 00:26:53;;;;;;;9.85;7.80;;;;;;;3.89;63.87;95101.81;4990872;28;20045;-80
2021/03/11 00:29:19;;;;;;;9.50;8.18;;;;;;;3.90;63.98;95092.84;4991065;28;20122;-81
2021/03/11 00:31:44;;;;;;;11.00;8.10;;;;;;;3.91;64.12;95091.78;4991169;28;20400;-78
2021/03/11 00:34:10;;;;;;;9.02;7.65;;;;;;;3.96;64.12;95098.91;4993100;28;20101;-79
2021/03/11 00:36:35;;;;;;;10.57;8.57;;;;;;;3.95;63.67;95099.97;4990949;28;20586;-81
2021/03/11 00:39:03;;;;;;;8.43;7.28;;;;;;;3.85;63.55;95102.59;4990776;28;20046;-79
2021/03/11 00:41:28;;;;;;;8.82;7.15;;;;;;;3.84;63.66;95093.91;4989670;28;20049;-79
2021/03/11 00:43:53;;;;;;;7.97;6.68;;;;;;;3.92;63.64;95100.47;4991095;28;20432;-80
2021/03/11 00:46:20;;;;;;;8.63;7.28;;;;;;;3.88;63.56;95087.03;4991726;28;20066;-82
2021/03/11 00:48:45;;;;;;;8.45;6.75;;;;;;;3.89;63.84;95087.84;4990138;28;20045;-79
2021/03/11 00:51:10;;;;;;;8.40;7.15;;;;;;;3.96;63.86;95090.22;4990936;28;20408;-80
2021/03/11 00:53:36;;;;;;;7.90;7.10;;;;;;;3.96;63.59;95080.47;4990908;28;20026;-78
2021/03/11 00:56:01;;;;;;;8.23;7.28;;;;;;;3.97;63.38;95070.75;4990725;28;20045;-79
2021/03/11 00:58:26;;;;;;;8.57;6.70;;;;;;;3.98;63.07;95070.47;4989665;28;20038;-80
2021/03/11 01:00:52;;;;;;;7.80;7.00;;;;;;;4.05;63.03;95070.22;4992236;28;20623;-80
2021/03/11 01:03:23;;;;;;;10.10;7.10;;;;;;;4.17;62.88;95084.69;4990544;28;20069;-78
2021/03/11 01:05:49;;;;;;;8.87;6.47;;;;;;;4.14;62.96;95069.41;4991152;28;20043;-80
2021/03/11 01:08:14;;;;;;;12.38;6.30;;;;;;;3.97;62.50;95026.78;4993084;28;20046;-80
2021/03/11 01:10:40;;;;;;;7.75;6.63;;;;;;;4.25;62.21;95066.75;4994392;28;20042;-78
2021/03/11 01:13:06;;;;;;;8.75;5.93;;;;;;;4.24;62.30;95063.34;4996200;28;20026;-79
2021/03/11 01:15:42;;;;;;;9.95;6.05;;;;;;;4.28;62.15;95069.66;4994125;28;20101;-80
2021/03/11 01:18:10;;;;;;;6.88;6.13;;;;;;;4.32;61.84;95072.56;4993981;28;20042;-78
2021/03/11 01:20:36;;;;;;;7.18;6.20;;;;;;;4.32;61.87;95067.28;4993949;28;20039;-75
2021/03/11 01:23:02;;;;;;;6.07;5.47;;;;;;;4.30;61.94;95057.03;4993955;28;20142;-81
2021/03/11 01:25:28;;;;;;;6.93;6.22;;;;;;;4.23;61.75;95050.44;4994012;28;20072;-80
2021/03/11 01:27:53;;;;;;;8.38;6.32;;;;;;;4.27;61.46;95054.91;4994907;28;20061;-79
2021/03/11 01:30:19;;;;;;;8.05;5.93;;;;;;;4.27;61.66;95052.28;4993976;28;20102;-79
2021/03/11 01:32:44;;;;;;;7.18;5.95;;;;;;;4.34;61.74;95059.91;4993933;28;20035;-78
2021/03/11 01:35:10;;;;;;;7.10;5.55;;;;;;;4.34;61.25;95057.28;4994145;28;20121;-79
2021/03/11 01:37:36;;;;;;;5.95;5.35;;;;;;;4.35;61.45;95054.41;4993222;28;20034;-77
2021/03/11 01:40:03;;;;;;;6.00;5.38;;;;;;;4.39;61.52;95052.00;4995720;28;20031;-79
2021/03/11 01:42:29;;;;;;;6.57;5.28;;;;;;;4.39;61.06;95036.19;4993534;28;20039;-79
2021/03/11 01:44:54;;;;;;;6.63;5.68;;;;;;;4.44;61.03;95030.91;4993641;28;20508;-79
2021/03/11 01:47:19;;;;;;;7.22;5.30;;;;;;;4.49;60.51;95030.91;4993463;28;20077;-78
2021/03/11 01:49:45;;;;;;;5.97;5.38;;;;;;;4.57;60.56;95025.09;4993374;28;20045;-79
2021/03/11 01:52:10;;;;;;;6.93;5.10;;;;;;;4.69;60.10;95037.97;4995477;28;20496;-80
2021/03/11 01:54:36;;;;;;;4.90;4.50;;;;;;;4.74;60.19;95029.25;4993458;28;20066;-80
2021/03/11 01:57:02;;;;;;;6.78;4.38;;;;;;;4.81;59.77;95013.94;4993221;28;20055;-80
2021/03/11 01:59:28;;;;;;;4.35;3.95;;;;;;;4.94;59.42;95040.50;4993404;28;20508;-78
2021/03/11 02:01:57;;;;;;;6.93;4.38;;;;;;;4.31;59.29;95049.91;4993174;28;20042;-79
2021/03/11 02:04:23;;;;;;;4.97;4.00;;;;;;;4.51;59.21;95052.50;4991997;28;20076;-79
2021/03/11 02:06:48;;;;;;;4.60;3.80;;;;;;;4.38;58.61;95035.41;4994766;28;20384;-78
2021/03/11 02:09:14;;;;;;;5.47;3.50;;;;;;;4.55;58.58;95026.41;4993168;28;20030;-79
2021/03/11 02:11:52;;;;;;;4.25;3.78;;;;;;;4.74;58.36;95026.63;4993057;28;20230;-78
2021/03/11 02:14:33;;;;;;;4.30;3.75;;;;;;;5.05;57.81;95029.91;4993043;28;20578;-80
2021/03/11 02:17:01;;;;;;;3.63;3.00;;;;;;;5.08;57.23;95008.28;4992564;28;20045;-81
2021/03/11 02:19:54;;;;;;;5.18;3.60;;;;;;;5.31;56.99;95001.53;4991294;28;20045;-79
2021/03/11 02:22:34;;;;;;;3.25;2.95;;;;;;;5.37;56.10;95000.44;4973936;28;20113;-79
2021/03/11 02:25:08;;;;;;;3.63;3.05;;;;;;;5.42;55.90;94984.59;4973646;28;20516;-79
2021/03/11 02:27:49;;;;;;;8.48;2.90;;;;;;;5.51;55.43;94969.75;4973057;28;20043;-79
2021/03/11 02:30:15;;;;;;;3.97;2.97;;;;;;;5.60;55.31;94952.28;4973525;28;20161;-79
2021/03/11 02:32:42;;;;;;;3.75;3.10;;;;;;;5.60;54.76;94936.44;4973444;28;20097;-79
2021/03/11 02:35:08;;;;;;;3.78;2.67;;;;;;;5.52;54.23;94930.97;4999865;23;20459;-63
2021/03/11 02:38:00;;;;;;;2.85;2.55;;;;;;;5.73;54.48;94953.47;4991101;28;20034;-64
2021/03/11 02:40:31;;;;;;;4.10;2.78;;;;;;;5.78;53.91;94952.66;4970425;28;20041;-64
2021/03/11 02:42:59;;;;;;;4.63;2.83;;;;;;;5.63;54.46;94922.72;4992315;28;20027;-67
2021/03/11 02:45:28;;;;;;;2.40;2.20;;;;;;;5.81;54.02;94925.69;4990467;28;20042;-70
2021/03/11 02:47:55;;;;;;;4.13;3.15;;;;;;;5.71;53.82;94905.47;4990206;28;20034;-66
2021/03/11 02:50:21;;;;;;;2.80;2.50;;;;;;;5.99;53.52;94940.88;4981025;28;20043;-66
2021/03/11 02:52:48;;;;;;;5.70;2.95;;;;;;;6.03;53.19;94933.94;4974239;28;20471;-66
2021/03/11 02:55:13;;;;;;;4.78;2.60;;;;;;;5.71;52.61;94884.34;4992287;28;20022;-65
2021/03/11 02:57:40;;;;;;;3.70;2.53;;;;;;;6.09;52.79;94937.31;4971306;28;20408;-66
2021/03/11 03:00:09;;;;;;;3.35;2.63;;;;;;;6.16;52.51;94933.31;4985008;28;20448;-66
2021/03/11 03:02:39;;;;;;;3.22;2.80;;;;;;;5.98;51.83;94902.31;4989783;28;20037;-66
2021/03/11 03:05:05;;;;;;;3.45;2.95;;;;;;;6.10;52.17;94920.44;4990106;28;20030;-65
2021/03/11 03:07:31;;;;;;;4.13;3.42;;;;;;;6.12;52.05;94900.59;4989831;28;20026;-66
2021/03/11 03:09:57;;;;;;;3.38;2.90;;;;;;;6.25;51.39;94907.06;4991976;28;20440;-65
2021/03/11 03:12:23;;;;;;;3.35;2.75;;;;;;;6.04;51.09;94858.97;4989773;28;20038;-65
2021/03/11 03:14:50;;;;;;;5.10;3.05;;;;;;;6.17;50.98;94866.19;4977887;28;20042;-66
2021/03/11 03:17:19;;;;;;;3.08;2.72;;;;;;;6.39;50.69;94878.88;4977820;28;20034;-68
2021/03/11 03:19:46;;;;;;;3.78;3.42;;;;;;;6.40;48.56;94877.81;4986269;28;20708;-64
2021/03/11 03:22:12;;;;;;;4.25;2.88;;;;;;;6.24;45.19;94866.66;4971013;28;20381;-65
2021/03/11 03:24:39;;;;;;;4.28;2.92;;;;;;;6.81;43.67;94853.50;4988711;28;20146;-65
2021/03/11 03:27:04;;;;;;;3.42;2.53;;;;;;;6.98;42.77;94860.91;4975483;28;20038;-65
2021/03/11 03:29:30;;;;;;;3.72;3.10;;;;;;;7.48;42.97;94874.41;4970273;28;20038;-64
2021/03/11 03:31:55;;;;;;;3.83;2.95;;;;;;;7.57;41.74;94817.06;4974641;28;20497;-64
2021/03/11 03:34:21;;;;;;;4.30;2.70;;;;;;;7.54;41.83;94836.19;4989454;28;20033;-67
2021/03/11 03:36:46;;;;;;;5.32;3.05;;;;;;;7.35;41.54;94796.56;4970599;28;20019;-65
2021/03/11 03:39:12;;;;;;;3.63;2.80;;;;;;;7.90;42.06;94803.78;4985111;28;20066;-65
2021/03/11 03:41:44;;;;;;;4.32;3.00;;;;;;;8.26;42.28;94833.75;4978737;28;20039;-66
2021/03/11 03:44:12;;;;;;;5.07;3.25;;;;;;;8.45;42.59;94838.19;4976692;28;20047;-66
2021/03/11 03:46:39;;;;;;;3.42;2.63;;;;;;;8.00;41.00;94817.59;4989230;28;20034;-64
2021/03/11 03:49:07;;;;;;;11.50;3.35;;;;;;;8.26;42.07;94828.47;4989718;28;20084;-66
2021/03/11 03:51:36;;;;;;;7.47;3.08;;;;;;;8.30;42.79;94818.84;4969967;28;20046;-64
2021/03/11 03:54:06;;;;;;;3.60;2.50;;;;;;;8.44;42.27;94810.88;4983451;28;20092;-65
2021/03/11 03:56:35;;;;;;;4.78;3.20;;;;;;;8.70;42.23;94840.31;4988046;28;20042;-65
2021/03/11 03:59:08;;;;;;;3.70;2.75;;;;;;;8.59;42.50;94812.44;4983486;28;20035;-64
2021/03/11 04:01:39;;;;;;;4.13;2.63;;;;;;;8.63;42.12;94805.44;4971348;28;20377;-66
2021/03/11 04:04:07;;;;;;;2.97;2.67;;;;;;;8.27;41.25;94770.94;4991182;28;20026;-66
2021/03/11 04:06:33;;;;;;;2.67;2.33;;;;;;;8.39;42.72;94757.22;4989197;28;20273;-65
2021/03/11 04:09:05;;;;;;;4.30;3.28;;;;;;;8.45;42.27;94771.94;4989148;28;20035;-65
2021/03/11 04:11:31;;;;;;;6.25;2.88;;;;;;;8.36;42.43;94752.50;4978133;28;20042;-66
2021/03/11 04:13:58;;;;;;;5.78;3.35;;;;;;;8.51;42.36;94781.34;4974841;28;20412;-66
2021/03/11 04:16:24;;;;;;;4.82;2.83;;;;;;;8.43;42.24;94744.94;4989141;28;20098;-64
2021/03/11 04:18:52;;;;;;;2.97;2.65;;;;;;;8.51;42.37;94745.00;4990780;28;20503;-65
2021/03/11 04:21:19;;;;;;;4.55;2.90;;;;;;;8.60;42.37;94763.66;4988791;28;20128;-66
2021/03/11 04:23:46;;;;;;;7.80;3.50;;;;;;;8.70;42.50;94767.91;4989032;28;20093;-65
2021/03/11 04:26:12;;;;;;;3.50;2.67;;;;;;;8.41;42.65;94723.25;4989079;28;20030;-65
2021/03/11 04:28:39;;;;;;;11.27;3.13;;;;;;;8.57;42.85;94750.97;4988729;28;20448;-64
2021/03/11 04:31:05;;;;;;;6.78;3.28;;;;;;;8.68;42.86;94768.22;4989586;28;20041;-64
2021/03/11 04:33:31;;;;;;;6.22;3.10;;;;;;;8.22;42.58;94700.31;4988952;28;20046;-64
2021/03/11 04:35:57;;;;;;;6.50;3.42;;;;;;;8.36;42.48;94731.28;4974637;28;20070;-65
2021/03/11 04:38:24;;;;;;;6.05;3.30;;;;;;;8.62;42.54;94755.38;4977533;28;20069;-65
2021/03/11 04:40:50;;;;;;;6.35;3.05;;;;;;;8.45;43.03;94724.22;4988970;28;20563;-64
2021/03/11 04:43:15;;;;;;;6.60;3.38;;;;;;;8.65;42.57;94739.66;4993741;28;20110;-64
2021/03/11 04:45:44;;;;;;;9.27;3.35;;;;;;;8.53;43.08;94716.31;4974108;28;20027;-64
2021/03/11 04:48:11;;;;;;;9.10;3.20;;;;;;;8.53;42.94;94710.25;4987829;28;20035;-66
2021/03/11 04:50:38;;;;;;;5.10;2.63;;;;;;;8.72;42.97;94736.59;4991219;28;20026;-66
2021/03/11 04:53:04;;;;;;;12.55;3.08;;;;;;;8.59;43.09;94712.47;4992331;28;20041;-64
2021/03/11 04:55:29;;;;;;;5.80;2.45;;;;;;;8.51;42.78;94699.16;4992579;28;20018;-65
2021/03/11 04:57:56;;;;;;;3.67;2.53;;;;;;;8.38;42.77;94684.09;4992952;28;20019;-64
2021/03/11 05:00:22;;;;;;;8.52;2.70;;;;;;;8.38;42.58;94687.53;4992426;28;20046;-65
2021/03/11 05:02:49;;;;;;;16.63;3.08;;;;;;;8.52;42.80;94703.38;4992146;28;20085;-64
2021/03/11 05:05:25;;;;;;;4.07;2.30;;;;;;;8.48;43.11;94697.09;4992285;28;20038;-67
2021/03/11 05:07:50;;;;;;;3.58;2.13;;;;;;;8.61;42.71;94717.47;4991956;28;20488;-66
2021/03/11 05:10:16;;;;;;;2.90;2.20;;;;;;;8.70;42.87;94730.78;4994166;28;20030;-64
2021/03/11 05:12:41;;;;;;;4.97;2.30;;;;;;;8.54;42.84;94720.53;4991953;28;20514;-66
2021/03/11 05:15:07;;;;;;;3.33;1.73;;;;;;;8.66;43.16;94740.44;4990869;28;20054;-67
2021/03/11 05:17:32;;;;;;;3.65;1.85;;;;;;;8.32;43.20;94689.47;4991876;28;20031;-66
2021/03/11 05:19:57;;;;;;;6.22;1.98;;;;;;;8.44;42.91;94696.91;4991902;28;20039;-66
2021/03/11 05:22:24;;;;;;;3.33;1.70;;;;;;;8.44;42.72;94699.56;4991575;28;20037;-66
2021/03/11 05:24:50;;;;;;;2.15;1.20;;;;;;;8.45;42.77;94698.50;4993869;28;20076;-66
2021/03/11 05:27:15;;;;;;;6.82;1.70;;;;;;;8.52;42.53;94704.16;4991581;28;20133;-66
2021/03/11 05:29:41;;;;;;;3.85;1.50;;;;;;;8.34;41.69;94705.06;4981099;28;20489;-64
2021/03/11 05:32:06;;;;;;;3.05;1.55;;;;;;;8.36;41.81;94684.41;4978070;28;20038;-65
2021/03/11 05:34:32;;;;;;;5.25;1.60;;;;;;;8.14;42.15;94648.06;4990131;28;20034;-64
2021/03/11 05:36:57;;;;;;;4.18;1.30;;;;;;;8.52;41.82;94713.97;4992048;28;20026;-67
2021/03/11 05:39:22;;;;;;;6.32;1.67;;;;;;;8.30;42.00;94686.34;4991935;28;20061;-66
2021/03/11 05:41:48;;;;;;;7.28;1.63;;;;;;;8.68;42.10;94731.09;4990050;28;20038;-66
2021/03/11 05:44:15;;;;;;;7.43;1.70;;;;;;;8.22;42.19;94652.63;4984452;28;20035;-64
2021/03/11 05:46:40;;;;;;;9.10;1.17;;;;;;;8.46;41.46;94678.09;4974622;28;20046;-65
2021/03/11 05:49:08;;;;;;;7.95;1.60;;;;;;;8.53;41.37;94692.47;4993464;28;20389;-65
2021/03/11 05:51:34;;;;;;;7.05;1.95;;;;;;;8.73;41.55;94708.97;4991141;28;20046;-65
2021/03/11 05:54:01;;;;;;;5.03;1.70;;;;;;;8.69;41.64;94708.78;4990453;28;20063;-65
2021/03/11 05:56:27;;;;;;;5.30;1.52;;;;;;;8.53;41.66;94683.72;4991254;28;20065;-65
2021/03/11 05:58:55;;;;;;;4.43;1.60;;;;;;;8.37;41.51;94715.13;4991231;28;20117;-64
2021/03/11 06:01:23;;;;;;;8.43;1.50;;;;;;;8.31;41.60;94709.13;4991232;28;20380;-66
2021/03/11 06:03:49;;;;;;;4.07;1.40;;;;;;;8.18;41.91;94670.19;4993089;28;20030;-66
2021/03/11 06:06:15;;;;;;;5.22;1.40;;;;;;;8.48;42.17;94697.09;4991123;28;20054;-65
2021/03/11 06:08:41;;;;;;;6.43;1.27;;;;;;;8.43;41.97;94690.06;4990690;28;20113;-66
2021/03/11 06:11:08;;;;;;;3.22;1.73;;;;;;;8.60;41.93;94702.66;4990999;28;20488;-66
2021/03/11 06:13:34;;;;;;;12.45;1.73;;;;;;;8.67;42.09;94705.66;4989466;28;20388;-65
2021/03/11 06:16:12;;;;;;;8.75;2.03;;;;;;;8.56;42.22;94688.44;4992708;28;20034;-64
2021/03/11 06:18:38;;;;;;;6.32;1.48;;;;;;;8.65;42.03;94701.75;4990500;28;20042;-65
2021/03/11 06:21:05;;;;;;;5.28;1.35;;;;;;;8.99;41.70;94733.00;4990614;28;20054;-65
2021/03/11 06:23:30;;;;;;;2.58;1.15;;;;;;;8.78;41.55;94691.06;4989187;28;20403;-66
2021/03/11 06:25:57;;;;;;;3.70;1.17;;;;;;;9.22;41.50;94741.75;4990786;28;20037;-66
2021/03/11 06:28:44;;;;;;;1.52;1.30;;;;;;;9.25;42.33;94741.09;4990431;28;20030;-67
2021/03/11 06:31:23;;;;;;;5.30;1.23;;;;;;;9.18;43.45;94730.94;4992373;28;20026;-65
2021/03/11 06:33:50;;;;;;;3.15;1.27;;;;;;;9.10;44.31;94734.31;4971684;28;20039;-64
2021/03/11 06:36:21;;;;;;;3.05;1.30;;;;;;;9.09;44.97;94735.41;4985098;28;20040;-65
2021/03/11 06:38:46;;;;;;;2.70;1.10;;;;;;;9.01;44.93;94713.06;4990307;28;20038;-65
2021/03/11 06:41:12;;;;;;;1.40;1.00;;;;;;;8.87;46.11;94683.19;4990360;28;20054;-66
2021/03/11 06:44:00;;;;;;;5.20;1.42;;;;;;;9.32;45.94;94728.97;4990088;28;20125;-68
2021/03/11 06:46:27;;;;;;;2.40;1.58;;;;;;;9.30;45.39;94719.75;4990370;28;20042;-71
2021/03/11 06:49:12;;;;;;;3.58;1.40;;;;;;;9.48;45.78;94728.59;4992085;28;20077;-70
2021/03/11 06:51:38;;;;;;;3.63;1.30;;;;;;;9.41;45.98;94702.47;4989881;28;20496;-66
2021/03/11 06:54:04;;;;;;;2.30;1.10;;;;;;;9.61;45.65;94725.03;4990199;28;20097;-70
2021/03/11 06:56:30;;;;;;;2.13;1.33;;;;;;;9.60;46.31;94728.78;4979400;28;20118;-64
2021/03/11 06:58:57;;;;;;;1.50;1.40;;;;;;;9.19;47.12;94679.44;4970679;28;20557;-66
2021/03/11 07:01:24;;;;;;;2.70;1.50;;;;;;;9.49;47.90;94722.19;4970227;28;20085;-68
2021/03/11 07:03:50;;;;;;;4.53;1.58;;;;;;;9.56;47.90;94725.16;4992663;28;20026;-59
2021/03/11 07:06:27;;;;;;;5.32;1.60;;;;;;;9.28;49.73;94719.28;4990992;28;20114;-63
2021/03/11 07:08:53;;;;;;;6.70;1.85;;;;;;;9.41;49.30;94696.38;5010721;28;20046;-65
2021/03/11 07:11:18;;;;;;;3.70;1.92;;;;;;;9.78;49.06;94716.34;5010340;28;20034;-66
2021/03/11 07:13:44;;;;;;;4.22;1.88;;;;;;;10.01;48.27;94723.09;5007291;28;20038;-65
2021/03/11 07:16:25;;;;;;;3.78;1.83;;;;;;;10.05;48.31;94710.00;4992968;28;20029;-66
2021/03/11 07:19:10;;;;;;;4.80;1.42;;;;;;;10.39;46.74;94723.34;4991297;28;20046;-68
2021/03/11 07:21:55;;;;;;;3.47;1.50;;;;;;;9.93;47.01;94643.38;4987268;28;20077;-67
2021/03/11 07:24:35;;;;;;;3.47;1.40;;;;;;;10.94;46.90;94743.97;4965672;28;20051;-64
2021/03/11 07:27:01;;;;;;;4.07;1.63;;;;;;;11.10;46.61;94748.78;4982987;28;20073;-65
2021/03/11 07:29:27;;;;;;;1.30;1.20;;;;;;;11.04;45.31;94720.78;4990554;28;20030;-64
2021/03/11 07:31:54;;;;;;;2.78;1.52;;;;;;;11.34;44.91;94765.03;4990323;28;20569;-67
2021/03/11 07:34:24;;;;;;;2.50;1.65;;;;;;;11.24;44.22;94735.28;4992528;28;20026;-67
2021/03/11 07:36:50;;;;;;;1.70;1.40;;;;;;;11.25;43.97;94726.97;4989244;28;20030;-67
2021/03/11 07:39:17;;;;;;;2.42;1.48;;;;;;;11.17;43.97;94703.84;4974389;28;20046;-63
2021/03/11 07:41:43;;;;;;;3.13;1.83;;;;;;;11.26;41.58;94733.09;4981867;28;20042;-67
2021/03/11 07:44:09;;;;;;;1.70;1.60;;;;;;;10.71;42.43;94712.53;4990520;28;20037;-67
2021/03/11 07:46:34;;;;;;;3.33;1.60;;;;;;;10.92;42.75;94710.78;4989218;28;20073;-65
2021/03/11 07:49:01;;;;;;;4.30;2.38;;;;;;;11.04;43.49;94691.50;4992036;28;20030;-65
2021/03/11 07:51:27;;;;;;;3.33;2.20;;;;;;;11.07;43.59;94718.28;4988441;28;20390;-66
2021/03/11 07:53:56;;;;;;;2.33;1.80;;;;;;;11.10;44.14;94699.00;4990397;28;20049;-65
2021/03/11 07:56:21;;;;;;;2.72;2.20;;;;;;;10.78;44.08;94718.94;5005514;28;20062;-66
2021/03/11 07:58:47;;;;;;;3.63;2.10;;;;;;;9.96;45.54;94680.75;4990143;28;20058;-64
2021/03/11 08:01:14;;;;;;;3.33;2.63;;;;;;;10.26;44.94;94654.38;4992231;28;20030;-64
2021/03/11 08:03:45;;;;;;;4.22;2.28;;;;;;;10.80;44.71;94676.84;4990170;28;20046;-64
2021/03/11 08:06:26;;;;;;;2.75;2.08;;;;;;;11.15;43.83;94687.41;4990240;28;20062;-63
2021/03/11 08:08:52;;;;;;;3.55;1.70;;;;;;;10.25;46.45;94682.84;4989981;28;20516;-63
2021/03/11 08:11:44;;;;;;;7.30;1.92;;;;;;;10.59;45.55;94690.00;4988506;28;20097;-68
2021/03/11 08:14:15;;;;;;;3.55;2.08;;;;;;;10.83;46.05;94680.75;4988941;28;20034;-64
2021/03/11 08:16:41;;;;;;;1.67;1.40;;;;;;;10.98;45.00;94682.91;4989361;28;20389;-64
2021/03/11 08:19:06;;;;;;;2.60;1.40;;;;;;;10.54;46.32;94646.84;4996145;28;20014;-64
2021/03/11 08:21:34;;;;;;;1.63;1.30;;;;;;;10.63;47.15;94679.53;4991755;28;20129;-64
2021/03/11 08:24:00;;;;;;;1.92;1.23;;;;;;;11.17;45.54;94653.28;4980851;28;20059;-65
2021/03/11 08:26:38;;;;;;;2.13;1.08;;;;;;;11.92;44.73;94678.28;4983207;28;20109;-64
2021/03/11 08:29:15;;;;;;;2.45;1.10;;;;;;;11.50;44.95;94687.28;4993669;28;20038;-65
2021/03/11 08:31:41;;;;;;;1.38;1.08;;;;;;;11.29;45.48;94666.69;4993475;28;20245;-64
2021/03/11 08:34:07;;;;;;;2.45;1.00;;;;;;;11.94;45.14;94646.78;4995572;28;20049;-64
2021/03/11 08:36:36;;;;;;;1.15;0.80;;;;;;;11.75;44.75;94642.97;4992555;28;20027;-65
2021/03/11 08:39:22;;;;;;;1.15;0.73;;;;;;;11.68;44.17;94636.25;4993647;28;20034;-63
2021/03/11 08:41:48;;;;;;;0.80;0.80;;;;;;;11.70;44.82;94676.69;4993249;28;20050;-64
2021/03/11 08:44:43;;;;;;;0.90;0.80;;;;;;;11.94;44.78;94665.44;4992468;28;20034;-65
2021/03/11 08:47:12;;;;;;;2.40;0.80;;;;;;;11.53;45.36;94668.78;4992259;28;20046;-64
2021/03/11 08:49:40;;;;;;;1.35;0.70;;;;;;;11.67;45.26;94656.03;4990891;28;20030;-64
2021/03/11 08:52:05;;;;;;;0.75;0.60;;;;;;;11.32;46.03;94662.63;4975620;28;20036;-62
2021/03/11 08:54:31;;;;;;;6.65;1.45;;;;;;;11.60;45.58;94615.78;4991714;28;20042;-63
2021/03/11 08:56:57;;;;;;;1.60;0.80;;;;;;;11.74;45.07;94650.19;4980201;28;20399;-63
2021/03/11 08:59:42;;;;;;;0.85;0.80;;;;;;;11.27;46.25;94652.16;4982371;28;20035;-62
2021/03/11 09:02:31;;;;;;;2.55;1.15;;;;;;;11.38;46.95;94654.13;4992802;28;20066;-62
2021/03/11 09:04:57;;;;;;;1.70;0.70;;;;;;;11.17;47.30;94631.97;4993105;28;20096;-62
2021/03/11 09:07:32;;;;;;;3.10;1.20;;;;;;;11.64;47.01;94642.56;4992680;28;20136;-62
2021/03/11 09:09:58;;;;;;;1.52;0.82;;;;;;;11.69;46.01;94645.81;4993968;28;20049;-62
2021/03/11 09:12:35;;;;;;;1.92;0.90;;;;;;;11.27;46.91;94652.91;4992847;28;20038;-62
2021/03/11 09:15:02;;;;;;;1.02;0.70;;;;;;;11.23;47.27;94620.03;4993111;28;20038;-63
2021/03/11 09:17:30;;;;;;;0.85;0.68;;;;;;;11.41;47.68;94658.00;4992886;28;20038;-62
2021/03/11 09:20:01;;;;;;;0.80;0.60;;;;;;;11.49;46.53;94587.19;4992475;28;20069;-62
2021/03/11 09:22:26;;;;;;;1.80;0.80;;;;;;;12.18;46.03;94656.81;4992735;28;20026;-62
2021/03/11 09:24:55;;;;;;;2.15;0.63;;;;;;;12.22;46.09;94631.03;4994667;28;20022;-63
2021/03/11 09:27:21;;;;;;;1.05;0.85;;;;;;;11.64;47.52;94602.59;4992328;28;20165;-62
2021/03/11 09:29:50;;;;;;;1.15;0.55;;;;;;;11.07;49.35;94609.16;4992937;28;20467;-62
2021/03/11 09:32:16;;;;;;;2.08;0.73;;;;;;;11.25;46.85;94601.09;4992516;28;20026;-62
2021/03/11 09:34:57;;;;;;;1.38;0.70;;;;;;;11.80;46.63;94627.56;4992664;28;20636;-62
2021/03/11 09:37:45;;;;;;;0.75;0.75;;;;;;;11.64;46.30;94623.91;4992577;28;20037;-63
2021/03/11 09:40:25;;;;;;;1.95;0.68;;;;;;;11.92;47.04;94624.22;4994568;28;20034;-62
2021/03/11 09:43:00;;;;;;;1.92;0.77;;;;;;;11.99;45.68;94605.06;4971803;28;20051;-62
2021/03/11 09:45:30;;;;;;;1.65;0.80;;;;;;;12.29;45.28;94595.09;4990074;28;20066;-62
2021/03/11 09:47:55;;;;;;;1.95;0.88;;;;;;;12.29;45.28;94577.22;4991188;28;20031;-63
2021/03/11 09:50:21;;;;;;;1.70;0.80;;;;;;;12.79;44.12;94575.44;4991999;28;20042;-63
2021/03/11 09:52:56;;;;;;;1.58;0.50;;;;;;;12.73;43.67;94591.66;4992354;28;20035;-64
2021/03/11 09:55:21;;;;;;;2.97;0.60;;;;;;;12.85;43.88;94596.25;4992321;28;20030;-63
2021/03/11 09:57:47;;;;;;;1.35;0.60;;;;;;;12.71;44.14;94582.44;4993034;28;20084;-63
2021/03/11 10:00:13;;;;;;;5.15;0.45;;;;;;;12.17;45.18;94582.47;4975950;28;20050;-63
2021/03/11 10:02:50;;;;;;;4.15;0.70;;;;;;;12.55;44.26;94589.50;4983119;28;20042;-63
2021/03/11 10:05:15;;;;;;;2.05;0.70;;;;;;;12.67;44.64;94614.34;4984776;28;20035;-63
2021/03/11 10:07:41;;;;;;;3.25;0.70;;;;;;;12.87;44.00;94599.38;4972273;28;20049;-63
2021/03/11 10:10:11;;;;;;;1.58;0.68;;;;;;;12.63;44.54;94588.63;4973475;28;20034;-62
2021/03/11 10:12:37;;;;;;;3.42;0.60;;;;;;;12.65;44.93;94581.09;4990957;28;20045;-62
2021/03/11 10:15:07;;;;;;;0.52;0.43;;;;;;;12.42;44.76;94600.13;4990926;28;20030;-62
2021/03/11 10:17:33;;;;;;;1.30;0.60;;;;;;;13.01;43.54;94575.03;4990406;28;20090;-62
2021/03/11 10:19:58;;;;;;;2.22;0.50;;;;;;;12.76;43.15;94560.88;4991832;28;20038;-61
2021/03/11 10:22:25;;;;;;;8.20;1.15;;;;;;;13.10;43.41;94578.34;4990322;28;20035;-64
2021/03/11 10:24:53;;;;;;;3.20;0.65;;;;;;;13.49;42.51;94592.19;4993857;28;20037;-63
2021/03/11 10:27:32;;;;;;;3.25;0.68;;;;;;;13.33;42.28;94578.75;4991659;28;20488;-62
2021/03/11 10:30:04;;;;;;;1.60;0.60;;;;;;;13.60;42.50;94587.19;4991990;28;20049;-64
2021/03/11 10:32:29;;;;;;;2.90;0.77;;;;;;;14.52;40.87;94579.13;4991626;28;20158;-63
2021/03/11 10:34:55;;;;;;;4.30;0.95;;;;;;;13.75;41.80;94552.50;4986046;28;20063;-63
2021/03/11 10:37:28;;;;;;;2.58;0.70;;;;;;;13.53;42.50;94583.19;4970689;28;20030;-66
2021/03/11 10:39:59;;;;;;;3.85;0.80;;;;;;;13.97;42.12;94566.50;5008050;28;20427;-64
2021/03/11 10:42:37;;;;;;;5.60;0.50;;;;;;;14.12;40.87;94559.66;4974675;28;20051;-63
2021/03/11 10:45:03;;;;;;;3.50;0.82;;;;;;;14.60;40.42;94539.19;4985901;28;20133;-65
2021/03/11 10:47:29;;;;;;;2.05;0.60;;;;;;;13.98;41.47;94538.66;4991094;28;20162;-68
2021/03/11 10:49:54;;;;;;;18.13;1.42;;;;;;;14.46;41.11;94539.56;4985191;28;20121;-66
2021/03/11 10:52:20;;;;;;;2.83;0.50;;;;;;;13.99;41.32;94492.84;4972323;28;20093;-65
2021/03/11 10:54:45;;;;;;;4.57;1.05;;;;;;;14.31;41.93;94538.41;4991633;28;20042;-66
2021/03/11 10:57:18;;;;;;;3.70;1.17;;;;;;;14.22;41.91;94521.72;4989890;28;20602;-65
2021/03/11 10:59:49;;;;;;;1.98;0.70;;;;;;;14.31;41.74;94519.66;4980063;28;20043;-67
2021/03/11 11:02:16;;;;;;;4.45;0.70;;;;;;;14.28;41.63;94505.09;4970120;28;20043;-69
2021/03/11 11:04:42;;;;;;;0.80;0.47;;;;;;;13.67;42.63;94454.56;4974851;28;20038;-68
2021/03/11 11:07:07;;;;;;;4.80;0.98;;;;;;;14.41;42.41;94518.41;4992806;28;20389;-66
2021/03/11 11:09:33;;;;;;;3.28;1.00;;;;;;;14.26;42.20;94483.25;4991351;28;20041;-65
2021/03/11 11:11:59;;;;;;;2.15;0.57;;;;;;;14.43;41.89;94476.00;4989737;28;20046;-67
2021/03/11 11:14:24;;;;;;;1.95;0.52;;;;;;;15.18;41.63;94508.06;4991063;28;20593;-66
2021/03/11 11:16:49;;;;;;;2.92;0.45;;;;;;;14.68;41.96;94469.41;4990808;28;20115;-68
2021/03/11 11:19:15;;;;;;;7.25;0.88;;;;;;;14.85;42.44;94483.59;4992691;28;20081;-67
2021/03/11 11:21:40;;;;;;;5.90;0.80;;;;;;;14.40;41.65;94380.41;4990303;28;20071;-68
2021/03/11 11:24:06;;;;;;;0.45;0.45;;;;;;;14.41;42.84;94486.28;4991056;28;20093;-68
2021/03/11 11:26:31;;;;;;;9.48;1.08;;;;;;;14.65;42.82;94490.75;4990975;28;20031;-67
2021/03/11 11:28:57;;;;;;;2.35;0.60;;;;;;;14.49;42.63;94455.97;5000902;28;20117;-66
2021/03/11 11:31:22;;;;;;;0.63;0.40;;;;;;;14.73;42.60;94487.13;4971355;28;20089;-68
2021/03/11 11:33:47;;;;;;;4.68;0.60;;;;;;;14.96;42.32;94460.50;4992813;28;20036;-68
2021/03/11 11:36:13;;;;;;;3.75;0.35;;;;;;;14.68;42.42;94460.59;4990676;28;20047;-67
2021/03/11 11:38:38;;;;;;;2.80;0.50;;;;;;;15.51;42.26;94498.88;4990442;28;20037;-68
2021/03/11 11:41:04;;;;;;;1.20;0.60;;;;;;;15.41;42.18;94486.78;4990529;28;20461;-67
2021/03/11 11:43:29;;;;;;;4.32;0.70;;;;;;;15.26;42.27;94463.47;4990159;28;20054;-67